Time;durP1;ratioP1;P1;durP2;ratioP2;P2;SDS_P1;SDS_P2;PMS_P1;PMS_P2;Temp;Humidity;BMP_temperature;BMP_pressure;BME280_temperature;BME280_humidity;BME280_pressure;Samples;Min_cycle;Max_cycle;Signal;HPM_P1;HPM_P2
2023/12/12 00:01:03;;;;;;;0.00;0.00;;;;;;;;;;660724;215;34301;-83
2023/12/12 00:06:25;;;;;;;0.00;0.00;;;;;;;;;;658972;216;32392;-82
2023/12/12 00:11:47;;;;;;;0.00;0.00;;;;;;;;;;660744;215;32385;-82
2023/12/12 00:17:09;;;;;;;0.00;0.00;;;;;;;;;;658511;216;34343;-82
2023/12/12 00:22:35;;;;;;;0.00;0.00;;;;;;;;;;660762;215;32384;-82
2023/12/12 00:27:58;;;;;;;0.00;0.00;;;;;;;;;;660762;215;33321;-82
2023/12/12 00:33:20;;;;;;;0.00;0.00;;;;;;;;;;660820;215;34317;-82
2023/12/12 00:38:42;;;;;;;0.00;0.00;;;;;;;;;;660744;215;32363;-82
2023/12/12 00:44:04;;;;;;;0.00;0.00;;;;;;;;;;658486;215;33699;-82
2023/12/12 00:49:26;;;;;;;0.00;0.00;;;;;;;;;;660765;215;34343;-82
2023/12/12 00:54:48;;;;;;;0.00;0.00;;;;;;;;;;658463;215;34316;-82
2023/12/12 01:00:10;;;;;;;0.00;0.00;;;;;;;;;;658508;216;32400;-81
2023/12/12 01:05:32;;;;;;;0.00;0.00;;;;;;;;;;658479;216;34342;-82
2023/12/12 01:10:54;;;;;;;0.00;0.00;;;;;;;;;;660773;215;32334;-82
2023/12/12 01:16:16;;;;;;;0.00;0.00;;;;;;;;;;660701;215;43119;-82
2023/12/12 01:21:39;;;;;;;0.00;0.00;;;;;;;;;;660766;215;34289;-82
2023/12/12 01:27:01;;;;;;;0.00;0.00;;;;;;;;;;662565;212;32682;-82
2023/12/12 01:32:23;;;;;;;0.00;0.00;;;;;;;;;;660791;215;33333;-83
2023/12/12 01:37:45;;;;;;;0.00;0.00;;;;;;;;;;660761;215;34304;-82
2023/12/12 01:43:07;;;;;;;0.00;0.00;;;;;;;;;;660756;215;32412;-82
2023/12/12 01:48:29;;;;;;;0.00;0.00;;;;;;;;;;660765;215;32338;-82
2023/12/12 01:53:50;;;;;;;0.00;0.00;;;;;;;;;;658481;216;33333;-82
2023/12/12 01:59:12;;;;;;;0.00;0.00;;;;;;;;;;658461;212;32375;-81
2023/12/12 02:04:34;;;;;;;0.00;0.00;;;;;;;;;;660801;215;35333;-81
2023/12/12 02:09:56;;;;;;;0.00;0.00;;;;;;;;;;660721;215;32405;-82
2023/12/12 02:15:18;;;;;;;0.00;0.00;;;;;;;;;;658502;216;32441;-82
2023/12/12 02:20:40;;;;;;;0.00;0.00;;;;;;;;;;660727;215;32412;-82
2023/12/12 02:26:02;;;;;;;0.00;0.00;;;;;;;;;;660651;212;34674;-82
2023/12/12 02:31:24;;;;;;;0.00;0.00;;;;;;;;;;660761;215;32361;-81
2023/12/12 02:36:45;;;;;;;0.00;0.00;;;;;;;;;;660760;215;33325;-82
2023/12/12 02:42:08;;;;;;;0.00;0.00;;;;;;;;;;660730;215;34301;-82
2023/12/12 02:47:30;;;;;;;0.00;0.00;;;;;;;;;;660764;212;32407;-82
2023/12/12 02:52:52;;;;;;;0.00;0.00;;;;;;;;;;658519;216;33369;-82
2023/12/12 02:58:14;;;;;;;0.00;0.00;;;;;;;;;;658533;215;33331;-81
2023/12/12 03:03:36;;;;;;;0.00;0.00;;;;;;;;;;660827;215;34276;-82
2023/12/12 03:08:58;;;;;;;0.00;0.00;;;;;;;;;;660767;215;33310;-82
2023/12/12 03:14:20;;;;;;;0.00;0.00;;;;;;;;;;658505;216;32392;-82
2023/12/12 03:19:42;;;;;;;0.00;0.00;;;;;;;;;;660696;212;32406;-84
2023/12/12 03:25:05;;;;;;;0.00;0.00;;;;;;;;;;660763;212;32385;-82
2023/12/12 03:30:27;;;;;;;0.00;0.00;;;;;;;;;;658458;212;32430;-81
2023/12/12 03:35:49;;;;;;;0.00;0.00;;;;;;;;;;660764;212;32739;-82
2023/12/12 03:41:11;;;;;;;0.00;0.00;;;;;;;;;;660826;215;34297;-82
2023/12/12 03:46:33;;;;;;;0.00;0.00;;;;;;;;;;658490;212;33371;-82
2023/12/12 03:51:55;;;;;;;0.00;0.00;;;;;;;;;;660737;212;32376;-82
2023/12/12 03:57:17;;;;;;;0.00;0.00;;;;;;;;;;660694;215;32470;-82
2023/12/12 04:02:39;;;;;;;0.00;0.00;;;;;;;;;;660762;215;32351;-82
2023/12/12 04:08:02;;;;;;;0.10;0.10;;;;;;;;;;649438;215;34337;-82
2023/12/12 04:13:24;;;;;;;0.00;0.00;;;;;;;;;;660759;215;33318;-82
2023/12/12 04:18:46;;;;;;;0.00;0.00;;;;;;;;;;658505;215;33387;-82
2023/12/12 04:24:08;;;;;;;0.00;0.00;;;;;;;;;;660773;215;33323;-82
2023/12/12 04:29:30;;;;;;;0.00;0.00;;;;;;;;;;658517;216;33320;-83
2023/12/12 04:34:52;;;;;;;0.00;0.00;;;;;;;;;;660763;212;34362;-83
2023/12/12 04:40:14;;;;;;;0.00;0.00;;;;;;;;;;658488;212;34399;-82
2023/12/12 04:45:36;;;;;;;0.00;0.00;;;;;;;;;;660761;215;32429;-82
2023/12/12 04:51:00;;;;;;;0.00;0.00;;;;;;;;;;660742;215;33353;-82
2023/12/12 04:56:20;;;;;;;0.00;0.00;;;;;;;;;;660757;215;33365;-81
2023/12/12 05:01:41;;;;;;;0.00;0.00;;;;;;;;;;660780;215;33305;-82
2023/12/12 05:07:04;;;;;;;0.00;0.00;;;;;;;;;;660753;215;32382;-82
2023/12/12 05:12:25;;;;;;;0.00;0.00;;;;;;;;;;660709;215;32380;-82
2023/12/12 05:17:47;;;;;;;0.00;0.00;;;;;;;;;;658571;213;32223;-83
2023/12/12 05:23:09;;;;;;;0.00;0.00;;;;;;;;;;660743;215;32365;-82
2023/12/12 05:28:31;;;;;;;0.00;0.00;;;;;;;;;;660769;215;32365;-81
2023/12/12 05:33:53;;;;;;;0.00;0.00;;;;;;;;;;660775;215;33355;-82
2023/12/12 05:39:15;;;;;;;0.00;0.00;;;;;;;;;;660742;212;33359;-82
2023/12/12 05:44:37;;;;;;;0.00;0.00;;;;;;;;;;660743;214;33317;-81
2023/12/12 05:49:59;;;;;;;0.00;0.00;;;;;;;;;;658570;215;33351;-82
2023/12/12 05:55:21;;;;;;;0.00;0.00;;;;;;;;;;658526;216;32375;-82
2023/12/12 06:00:44;;;;;;;0.00;0.00;;;;;;;;;;660730;215;33391;-82
2023/12/12 06:06:07;;;;;;;0.00;0.00;;;;;;;;;;660672;215;32335;-82
2023/12/12 06:11:31;;;;;;;0.00;0.00;;;;;;;;;;660797;215;34335;-82
2023/12/12 06:16:53;;;;;;;0.00;0.00;;;;;;;;;;660765;215;32366;-82
2023/12/12 06:22:15;;;;;;;0.00;0.00;;;;;;;;;;660786;215;34295;-82
2023/12/12 06:27:37;;;;;;;0.00;0.00;;;;;;;;;;658425;215;34321;-82
2023/12/12 06:33:00;;;;;;;0.00;0.00;;;;;;;;;;658479;216;33298;-82
2023/12/12 06:38:22;;;;;;;0.00;0.00;;;;;;;;;;660706;215;33361;-82
2023/12/12 06:43:44;;;;;;;0.00;0.00;;;;;;;;;;660693;215;33392;-83
2023/12/12 06:49:07;;;;;;;0.00;0.00;;;;;;;;;;660696;215;32373;-82
2023/12/12 06:54:29;;;;;;;0.00;0.00;;;;;;;;;;660767;215;34360;-82
2023/12/12 06:59:50;;;;;;;0.00;0.00;;;;;;;;;;660751;215;34349;-82
2023/12/12 07:05:15;;;;;;;0.00;0.00;;;;;;;;;;660728;215;32401;-82
2023/12/12 07:10:35;;;;;;;0.00;0.00;;;;;;;;;;660749;215;32322;-82
2023/12/12 07:15:58;;;;;;;0.10;0.10;;;;;;;;;;660733;214;34294;-82
2023/12/12 07:21:21;;;;;;;0.00;0.00;;;;;;;;;;658486;216;34321;-82
2023/12/12 07:26:42;;;;;;;0.00;0.00;;;;;;;;;;660577;215;34427;-82
2023/12/12 07:32:06;;;;;;;0.00;0.00;;;;;;;;;;654401;214;32423;-82
2023/12/12 07:37:27;;;;;;;0.00;0.00;;;;;;;;;;660772;215;32398;-82
2023/12/12 07:42:49;;;;;;;0.00;0.00;;;;;;;;;;660743;215;32337;-83
2023/12/12 07:48:11;;;;;;;0.00;0.00;;;;;;;;;;660785;215;33310;-82
2023/12/12 07:53:33;;;;;;;0.00;0.00;;;;;;;;;;660721;214;33354;-82
2023/12/12 07:58:56;;;;;;;0.00;0.00;;;;;;;;;;660792;215;34352;-82
2023/12/12 08:04:20;;;;;;;0.00;0.00;;;;;;;;;;650120;218;34369;-83
2023/12/12 08:09:42;;;;;;;0.00;0.00;;;;;;;;;;660684;214;32724;-82
2023/12/12 08:15:04;;;;;;;0.10;0.10;;;;;;;;;;660710;215;32722;-81
2023/12/12 08:20:26;;;;;;;0.10;0.10;;;;;;;;;;660736;215;32726;-83
2023/12/12 08:25:49;;;;;;;0.00;0.00;;;;;;;;;;658364;215;33289;-83
2023/12/12 08:31:11;;;;;;;0.00;0.00;;;;;;;;;;650867;219;32365;-82
2023/12/12 08:36:33;;;;;;;0.00;0.00;;;;;;;;;;658565;216;39399;-83
2023/12/12 08:41:55;;;;;;;0.00;0.00;;;;;;;;;;660751;215;32395;-82
2023/12/12 08:47:17;;;;;;;0.00;0.00;;;;;;;;;;660745;215;35364;-82
2023/12/12 08:52:39;;;;;;;0.00;0.00;;;;;;;;;;660719;215;34692;-82
2023/12/12 08:58:04;;;;;;;0.00;0.00;;;;;;;;;;660750;215;32752;-82
2023/12/12 09:03:26;;;;;;;0.10;0.10;;;;;;;;;;660721;215;54214;-82
2023/12/12 09:08:48;;;;;;;0.00;0.00;;;;;;;;;;660727;214;33383;-82
2023/12/12 09:14:10;;;;;;;0.00;0.00;;;;;;;;;;660846;215;34311;-82
2023/12/12 09:19:32;;;;;;;0.10;0.10;;;;;;;;;;658510;216;32385;-82
2023/12/12 09:24:54;;;;;;;0.00;0.00;;;;;;;;;;660725;214;33414;-82
2023/12/12 09:30:16;;;;;;;0.00;0.00;;;;;;;;;;660807;215;34675;-82
2023/12/12 09:35:38;;;;;;;0.00;0.00;;;;;;;;;;660829;215;34326;-82
2023/12/12 09:41:00;;;;;;;0.10;0.10;;;;;;;;;;660806;215;35367;-82
2023/12/12 09:46:23;;;;;;;0.00;0.00;;;;;;;;;;650949;217;34313;-82
2023/12/12 09:51:44;;;;;;;0.00;0.00;;;;;;;;;;638224;221;33542;-82
2023/12/12 09:57:07;;;;;;;0.00;0.00;;;;;;;;;;650912;218;43627;-82
2023/12/12 10:02:29;;;;;;;0.03;0.03;;;;;;;;;;660783;215;32333;-82
2023/12/12 10:07:53;;;;;;;0.00;0.00;;;;;;;;;;660416;215;35271;-82
2023/12/12 10:13:20;;;;;;;0.10;0.10;;;;;;;;;;658479;212;36336;-82
2023/12/12 10:18:42;;;;;;;0.00;0.00;;;;;;;;;;650859;218;43069;-82
2023/12/12 10:24:12;;;;;;;0.00;0.00;;;;;;;;;;660702;215;33406;-83
2023/12/12 10:29:36;;;;;;;0.10;0.10;;;;;;;;;;658449;216;34708;-82
2023/12/12 10:35:00;;;;;;;0.10;0.10;;;;;;;;;;658482;216;32388;-82
2023/12/12 10:40:22;;;;;;;0.17;0.17;;;;;;;;;;660808;215;34274;-82
2023/12/12 10:45:45;;;;;;;0.10;0.10;;;;;;;;;;658468;216;53828;-82
2023/12/12 10:51:08;;;;;;;0.00;0.00;;;;;;;;;;660679;215;32365;-83
2023/12/12 10:56:35;;;;;;;0.10;0.10;;;;;;;;;;658491;216;32350;-82
2023/12/12 11:01:51;;;;;;;0.03;0.03;;;;;;;;;;660831;215;32937;-82
2023/12/12 11:07:13;;;;;;;0.10;0.10;;;;;;;;;;652732;215;32563;-83
2023/12/12 11:12:36;;;;;;;0.10;0.10;;;;;;;;;;660740;215;32400;-83
2023/12/12 11:17:57;;;;;;;0.10;0.10;;;;;;;;;;658537;216;37244;-82
2023/12/12 11:23:19;;;;;;;0.10;0.10;;;;;;;;;;660745;212;32389;-83
2023/12/12 11:28:41;;;;;;;0.08;0.08;;;;;;;;;;655356;216;41640;-82
2023/12/12 11:34:04;;;;;;;0.10;0.10;;;;;;;;;;658466;216;43497;-82
2023/12/12 11:39:44;;;;;;;0.10;0.10;;;;;;;;;;660755;212;32379;-82
2023/12/12 11:45:07;;;;;;;0.10;0.10;;;;;;;;;;661947;214;42882;-85
2023/12/12 11:50:29;;;;;;;0.10;0.10;;;;;;;;;;660726;215;43103;-83
2023/12/12 11:55:51;;;;;;;0.00;0.00;;;;;;;;;;660813;215;34346;-83
2023/12/12 12:01:15;;;;;;;0.10;0.10;;;;;;;;;;660739;215;32446;-83
2023/12/12 12:06:38;;;;;;;0.00;0.00;;;;;;;;;;663421;213;32493;-83
2023/12/12 12:12:02;;;;;;;0.08;0.08;;;;;;;;;;660163;216;32391;-83
2023/12/12 12:17:24;;;;;;;0.00;0.00;;;;;;;;;;660796;215;35350;-82
2023/12/12 12:22:46;;;;;;;0.00;0.00;;;;;;;;;;660739;212;32393;-83
2023/12/12 12:28:08;;;;;;;0.00;0.00;;;;;;;;;;660725;215;34341;-83
2023/12/12 12:33:38;;;;;;;0.10;0.10;;;;;;;;;;658068;216;32329;-83
2023/12/12 12:39:01;;;;;;;0.00;0.00;;;;;;;;;;650990;219;35288;-82
2023/12/12 12:44:23;;;;;;;0.00;0.00;;;;;;;;;;660773;215;32435;-83
2023/12/12 12:49:46;;;;;;;0.00;0.00;;;;;;;;;;650193;219;33372;-83
2023/12/12 12:55:08;;;;;;;0.03;0.03;;;;;;;;;;658421;216;33359;-83
2023/12/12 13:00:30;;;;;;;0.10;0.10;;;;;;;;;;660769;215;33333;-83
2023/12/12 13:05:52;;;;;;;0.00;0.00;;;;;;;;;;660635;212;32412;-82
2023/12/12 13:11:14;;;;;;;0.00;0.00;;;;;;;;;;658465;216;32428;-83
2023/12/12 13:16:39;;;;;;;0.00;0.00;;;;;;;;;;650891;215;32358;-83
2023/12/12 13:22:01;;;;;;;0.00;0.00;;;;;;;;;;660430;213;32459;-84
2023/12/12 13:27:23;;;;;;;0.00;0.00;;;;;;;;;;662920;215;32304;-83
2023/12/12 13:32:46;;;;;;;0.10;0.10;;;;;;;;;;660764;215;33351;-82
2023/12/12 13:38:08;;;;;;;0.00;0.00;;;;;;;;;;660733;212;32388;-83
2023/12/12 13:43:29;;;;;;;0.10;0.10;;;;;;;;;;659466;213;34346;-83
2023/12/12 13:48:54;;;;;;;0.00;0.00;;;;;;;;;;658220;213;34189;-85
2023/12/12 13:54:16;;;;;;;0.00;0.00;;;;;;;;;;660855;215;35299;-82
2023/12/12 13:59:38;;;;;;;0.00;0.00;;;;;;;;;;662367;215;32359;-85
2023/12/12 14:05:01;;;;;;;0.00;0.00;;;;;;;;;;660726;215;32462;-84
2023/12/12 14:10:22;;;;;;;0.00;0.00;;;;;;;;;;660763;215;33378;-85
2023/12/12 14:15:45;;;;;;;0.00;0.00;;;;;;;;;;660762;215;32400;-84
2023/12/12 14:21:07;;;;;;;0.03;0.03;;;;;;;;;;658539;216;35340;-83
2023/12/12 14:26:29;;;;;;;0.00;0.00;;;;;;;;;;660695;215;32326;-84
2023/12/12 14:31:51;;;;;;;0.00;0.00;;;;;;;;;;660865;212;32810;-85
2023/12/12 14:37:13;;;;;;;0.00;0.00;;;;;;;;;;658510;216;32378;-84
2023/12/12 14:42:37;;;;;;;0.00;0.00;;;;;;;;;;658539;216;39544;-84
2023/12/12 14:48:02;;;;;;;0.00;0.00;;;;;;;;;;660757;215;43111;-85
2023/12/12 14:53:26;;;;;;;0.00;0.00;;;;;;;;;;658505;216;43071;-85
2023/12/12 14:58:49;;;;;;;0.00;0.00;;;;;;;;;;660792;215;35381;-85
2023/12/12 15:04:12;;;;;;;0.00;0.00;;;;;;;;;;660754;215;36334;-85
2023/12/12 15:09:34;;;;;;;0.00;0.00;;;;;;;;;;660722;215;34331;-85
2023/12/12 15:14:57;;;;;;;0.10;0.10;;;;;;;;;;660737;215;32740;-85
2023/12/12 15:20:21;;;;;;;0.00;0.00;;;;;;;;;;667076;213;32200;-85
2023/12/12 15:25:44;;;;;;;0.00;0.00;;;;;;;;;;657245;215;32600;-85
2023/12/12 15:31:07;;;;;;;0.00;0.00;;;;;;;;;;654466;212;34509;-85
2023/12/12 15:36:29;;;;;;;0.00;0.00;;;;;;;;;;649973;216;34400;-85
2023/12/12 15:41:51;;;;;;;0.00;0.00;;;;;;;;;;646577;216;43306;-85
2023/12/12 15:47:13;;;;;;;0.00;0.00;;;;;;;;;;645967;216;33021;-86
2023/12/12 15:52:36;;;;;;;0.00;0.00;;;;;;;;;;658769;216;35434;-84
2023/12/12 15:57:59;;;;;;;0.00;0.00;;;;;;;;;;646875;219;34337;-87
2023/12/12 16:03:21;;;;;;;0.03;0.03;;;;;;;;;;652001;218;32379;-85
2023/12/12 16:08:44;;;;;;;0.10;0.10;;;;;;;;;;656088;215;32435;-86
2023/12/12 16:14:05;;;;;;;0.00;0.00;;;;;;;;;;649429;216;32366;-87
2023/12/12 16:19:28;;;;;;;0.00;0.00;;;;;;;;;;666947;212;32295;-85
2023/12/12 16:24:53;;;;;;;0.00;0.00;;;;;;;;;;650922;219;32365;-86
2023/12/12 16:30:14;;;;;;;0.00;0.00;;;;;;;;;;658515;212;32384;-86
2023/12/12 16:35:37;;;;;;;0.00;0.00;;;;;;;;;;660758;215;34327;-86
2023/12/12 16:40:59;;;;;;;0.10;0.10;;;;;;;;;;658464;215;32411;-86
2023/12/12 16:46:21;;;;;;;0.00;0.00;;;;;;;;;;637728;218;34464;-85
2023/12/12 16:51:45;;;;;;;0.03;0.03;;;;;;;;;;660726;212;32749;-86
2023/12/12 16:57:06;;;;;;;0.00;0.00;;;;;;;;;;660779;214;33986;-86
2023/12/12 17:02:28;;;;;;;0.10;0.10;;;;;;;;;;660746;215;32373;-86
2023/12/12 17:07:53;;;;;;;0.10;0.10;;;;;;;;;;660765;215;34320;-86
2023/12/12 17:13:18;;;;;;;0.00;0.00;;;;;;;;;;660761;215;32326;-85
2023/12/12 17:18:41;;;;;;;0.10;0.10;;;;;;;;;;651037;218;32765;-86
2023/12/12 17:24:03;;;;;;;0.00;0.00;;;;;;;;;;650950;218;43105;-85
2023/12/12 19:06:29;;;;;;;0.07;0.07;;;;;;;;;;656510;215;32559;-86
2023/12/12 19:11:52;;;;;;;0.00;0.00;;;;;;;;;;663709;214;33248;-86
2023/12/12 19:17:16;;;;;;;0.00;0.00;;;;;;;;;;655238;212;32560;-86
2023/12/12 19:22:38;;;;;;;0.00;0.00;;;;;;;;;;658525;216;32350;-86
2023/12/12 19:28:00;;;;;;;0.00;0.00;;;;;;;;;;658493;216;32378;-86
2023/12/12 19:33:23;;;;;;;0.00;0.00;;;;;;;;;;660717;212;33469;-86
2023/12/12 19:38:44;;;;;;;0.07;0.07;;;;;;;;;;662631;215;32383;-85
2023/12/12 19:44:06;;;;;;;0.00;0.00;;;;;;;;;;658501;216;33736;-88
2023/12/12 19:49:28;;;;;;;0.00;0.00;;;;;;;;;;660754;215;33380;-86
2023/12/12 19:54:52;;;;;;;0.00;0.00;;;;;;;;;;658583;215;32408;-85
2023/12/12 20:00:14;;;;;;;0.00;0.00;;;;;;;;;;645797;218;32344;-85
2023/12/12 20:05:36;;;;;;;0.00;0.00;;;;;;;;;;658667;215;35295;-85
2023/12/12 20:10:58;;;;;;;0.00;0.00;;;;;;;;;;660794;212;41729;-85
2023/12/12 20:16:24;;;;;;;0.00;0.00;;;;;;;;;;658501;216;33363;-85
2023/12/12 20:21:45;;;;;;;0.00;0.00;;;;;;;;;;660808;215;34391;-85
2023/12/12 20:27:07;;;;;;;0.00;0.00;;;;;;;;;;647346;219;34315;-86
2023/12/12 20:32:29;;;;;;;0.00;0.00;;;;;;;;;;650931;218;32384;-86
2023/12/12 20:37:51;;;;;;;0.00;0.00;;;;;;;;;;644541;221;34531;-87
2023/12/12 20:43:14;;;;;;;0.00;0.00;;;;;;;;;;658508;216;34683;-86
2023/12/12 20:48:36;;;;;;;0.00;0.00;;;;;;;;;;658473;216;32427;-87
2023/12/12 20:54:01;;;;;;;0.00;0.00;;;;;;;;;;658433;216;32351;-86
2023/12/12 20:59:27;;;;;;;0.00;0.00;;;;;;;;;;660721;216;33425;-86
2023/12/12 21:04:49;;;;;;;0.00;0.00;;;;;;;;;;655992;214;32590;-86
2023/12/12 21:10:17;;;;;;;0.00;0.00;;;;;;;;;;658940;215;33289;-86
2023/12/12 21:15:39;;;;;;;0.00;0.00;;;;;;;;;;658449;216;32359;-86
2023/12/12 21:21:02;;;;;;;0.00;0.00;;;;;;;;;;660743;215;33322;-86
2023/12/12 21:26:24;;;;;;;0.00;0.00;;;;;;;;;;659422;216;32309;-88
2023/12/12 21:31:46;;;;;;;0.00;0.00;;;;;;;;;;660770;215;35385;-86
2023/12/12 21:37:12;;;;;;;0.00;0.00;;;;;;;;;;660712;216;32315;-85
2023/12/12 21:42:34;;;;;;;0.10;0.10;;;;;;;;;;658015;213;34442;-85
2023/12/12 21:47:56;;;;;;;0.00;0.00;;;;;;;;;;651904;215;33529;-85
2023/12/12 21:53:18;;;;;;;0.00;0.00;;;;;;;;;;657754;213;32406;-86
2023/12/12 21:58:40;;;;;;;0.00;0.00;;;;;;;;;;652361;216;32341;-85
2023/12/12 22:04:08;;;;;;;0.00;0.00;;;;;;;;;;650943;218;34320;-86
2023/12/12 22:09:33;;;;;;;0.00;0.00;;;;;;;;;;650922;219;32486;-87
2023/12/12 22:14:55;;;;;;;0.00;0.00;;;;;;;;;;650998;218;39094;-86
2023/12/12 22:20:18;;;;;;;0.00;0.00;;;;;;;;;;660468;215;34266;-87
2023/12/12 22:25:40;;;;;;;0.00;0.00;;;;;;;;;;651176;216;32513;-87
2023/12/12 22:31:02;;;;;;;0.00;0.00;;;;;;;;;;660770;215;32383;-86
2023/12/12 22:36:23;;;;;;;0.03;0.03;;;;;;;;;;658484;216;35309;-86
2023/12/12 22:41:46;;;;;;;0.00;0.00;;;;;;;;;;658526;215;33328;-86
2023/12/12 22:47:08;;;;;;;0.00;0.00;;;;;;;;;;650931;219;33396;-86
2023/12/12 22:52:34;;;;;;;0.10;0.10;;;;;;;;;;640708;218;34538;-86
2023/12/12 22:57:58;;;;;;;0.00;0.00;;;;;;;;;;660240;216;35281;-85
